Time;durP1;ratioP1;P1;durP2;ratioP2;P2;SDS_P1;SDS_P2;PMS_P1;PMS_P2;Temp;Humidity;BMP_temperature;BMP_pressure;BME280_temperature;BME280_humidity;BME280_pressure;Samples;Min_cycle;Max_cycle;Signal;HPM_P1;HPM_P2
2023/06/04 00:02:09;;;;;;;7.90;4.80;;;;;;;18.53;86.96;100190.50;5005643;28;20030;-18
2023/06/04 00:04:35;;;;;;;8.82;5.32;;;;;;;18.58;86.53;100193.22;5005670;28;20045;-17
2023/06/04 00:07:00;;;;;;;7.20;4.32;;;;;;;18.80;85.38;100201.91;5005438;28;20021;-18
2023/06/04 00:09:26;;;;;;;6.68;4.40;;;;;;;18.78;84.69;100203.25;5005672;28;20026;-19
2023/06/04 00:11:51;;;;;;;8.40;4.88;;;;;;;18.95;82.92;100203.00;5005079;28;20096;-17
2023/06/04 00:14:17;;;;;;;8.45;5.20;;;;;;;18.79;84.03;100204.88;5005320;28;20103;-17
2023/06/04 00:16:42;;;;;;;7.40;4.32;;;;;;;18.72;84.45;100210.53;5005207;28;20498;-18
2023/06/04 00:19:08;;;;;;;7.28;4.35;;;;;;;18.72;85.25;100205.13;5005293;28;20032;-24
2023/06/04 00:21:34;;;;;;;6.75;4.72;;;;;;;18.62;86.75;100207.81;5005137;28;20034;-18
2023/06/04 00:24:01;;;;;;;7.15;4.70;;;;;;;18.88;85.00;100205.97;5005480;28;20417;-18
2023/06/04 00:26:27;;;;;;;7.93;4.97;;;;;;;18.66;86.46;100206.19;5005173;28;20025;-18
2023/06/04 00:28:54;;;;;;;10.15;4.78;;;;;;;18.40;86.47;100195.34;5005259;28;20092;-18
2023/06/04 00:31:21;;;;;;;7.50;4.47;;;;;;;18.36;87.65;100191.56;5005328;28;20018;-18
2023/06/04 00:33:49;;;;;;;8.05;4.53;;;;;;;18.57;86.12;100194.28;5005128;28;20034;-18
2023/06/04 00:36:15;;;;;;;8.15;4.70;;;;;;;18.91;84.00;100208.13;5005310;28;20045;-18
2023/06/04 00:38:40;;;;;;;6.85;4.60;;;;;;;18.64;84.83;100202.94;5004649;28;20022;-18
2023/06/04 00:41:06;;;;;;;8.07;5.10;;;;;;;18.60;84.53;100199.16;5005295;28;20404;-18
2023/06/04 00:43:32;;;;;;;6.90;4.22;;;;;;;18.60;85.07;100191.88;5004913;28;20032;-18
2023/06/04 00:45:58;;;;;;;8.23;4.55;;;;;;;18.54;83.77;100194.84;5005216;28;20028;-18
2023/06/04 00:48:27;;;;;;;7.35;4.88;;;;;;;18.69;82.59;100189.44;5004898;28;20041;-18
2023/06/04 00:50:53;;;;;;;8.15;4.65;;;;;;;18.60;84.48;100202.66;5004838;28;20056;-18
2023/06/04 00:53:20;;;;;;;7.53;4.75;;;;;;;18.79;83.02;100210.28;5005005;28;20471;-21
2023/06/04 00:55:46;;;;;;;8.02;4.78;;;;;;;18.47;84.51;100214.81;5005066;28;20172;-17
2023/06/04 00:58:12;;;;;;;7.38;4.88;;;;;;;18.50;86.04;100207.25;5005053;28;20113;-17
2023/06/04 01:00:38;;;;;;;8.23;4.72;;;;;;;18.47;86.50;100209.41;5004986;28;20049;-21
2023/06/04 01:03:09;;;;;;;7.55;4.53;;;;;;;18.50;85.77;100204.56;5005111;28;20022;-18
2023/06/04 01:05:43;;;;;;;7.47;5.13;;;;;;;18.51;84.98;100189.97;5004978;28;20100;-18
2023/06/04 01:08:10;;;;;;;8.77;5.00;;;;;;;18.66;83.26;100207.00;5004873;28;20088;-17
2023/06/04 01:10:36;;;;;;;9.02;4.70;;;;;;;18.71;83.64;100203.47;5004518;28;20033;-18
2023/06/04 01:13:01;;;;;;;9.20;4.80;;;;;;;18.58;84.87;100209.44;5004868;28;20022;-18
2023/06/04 01:15:27;;;;;;;10.27;5.75;;;;;;;18.71;83.27;100213.47;5004470;28;20029;-18
2023/06/04 01:18:02;;;;;;;9.27;4.95;;;;;;;18.70;83.06;100209.19;5004888;28;20045;-18
2023/06/04 01:20:46;;;;;;;6.72;4.63;;;;;;;18.55;83.43;100188.34;5004953;28;20037;-18
2023/06/04 01:23:27;;;;;;;7.28;4.70;;;;;;;18.75;82.86;100204.56;5005073;28;20115;-18
2023/06/04 01:25:53;;;;;;;8.38;5.40;;;;;;;18.67;83.28;100205.09;5007528;28;20034;-18
2023/06/04 01:28:20;;;;;;;8.05;4.55;;;;;;;18.59;84.62;100206.47;5008296;28;20026;-18
2023/06/04 01:30:47;;;;;;;8.25;4.95;;;;;;;18.66;83.05;100212.41;5008435;28;20038;-19
2023/06/04 01:33:17;;;;;;;7.82;5.13;;;;;;;18.59;82.79;100201.06;5008317;28;20034;-19
2023/06/04 01:35:43;;;;;;;7.80;4.90;;;;;;;18.64;83.19;100209.16;5008051;28;20033;-18
2023/06/04 01:38:09;;;;;;;11.88;5.10;;;;;;;18.89;81.29;100220.28;5008437;28;20030;-19
2023/06/04 01:40:35;;;;;;;9.80;5.40;;;;;;;18.73;82.86;100220.22;5008334;28;20033;-18
2023/06/04 01:43:00;;;;;;;7.78;5.32;;;;;;;18.70;83.20;100212.69;5008640;28;20043;-18
2023/06/04 01:45:27;;;;;;;12.23;5.63;;;;;;;18.59;84.33;100217.28;5008506;28;20061;-17
2023/06/04 01:47:53;;;;;;;8.95;5.60;;;;;;;18.53;84.97;100217.50;5008328;28;20413;-18
2023/06/04 01:50:19;;;;;;;8.15;5.55;;;;;;;18.33;85.91;100215.56;5008375;28;20018;-18
2023/06/04 01:52:44;;;;;;;9.70;5.75;;;;;;;18.34;86.21;100209.13;5008428;28;20164;-18
2023/06/04 01:55:13;;;;;;;10.32;5.72;;;;;;;18.16;87.27;100213.09;5008676;28;20022;-19
2023/06/04 01:57:39;;;;;;;10.23;5.75;;;;;;;18.48;85.96;100211.03;5008348;28;20111;-22
2023/06/04 02:00:10;;;;;;;10.45;5.82;;;;;;;18.49;84.57;100217.25;5008746;28;20491;-18
2023/06/04 02:02:42;;;;;;;7.90;5.72;;;;;;;18.38;85.58;100221.00;5008550;28;20167;-17
2023/06/04 02:05:08;;;;;;;9.73;6.18;;;;;;;18.49;85.63;100222.66;5008434;28;20088;-22
2023/06/04 02:07:35;;;;;;;7.97;5.45;;;;;;;18.45;85.82;100225.06;5008157;28;20040;-21
2023/06/04 02:10:00;;;;;;;8.85;6.07;;;;;;;18.43;85.32;100229.94;5008055;28;20033;-21
2023/06/04 02:12:26;;;;;;;8.15;6.10;;;;;;;18.30;85.47;100225.03;5007564;28;20026;-19
2023/06/04 02:14:51;;;;;;;11.10;6.03;;;;;;;18.40;85.50;100235.03;5007728;28;20030;-19
2023/06/04 02:17:17;;;;;;;9.40;6.45;;;;;;;18.33;85.95;100229.91;5007390;28;20029;-18
2023/06/04 02:19:49;;;;;;;8.52;5.43;;;;;;;18.34;86.23;100230.72;5007426;28;20537;-18
2023/06/04 02:22:19;;;;;;;9.88;6.25;;;;;;;18.36;86.37;100234.75;5007406;28;20040;-18
2023/06/04 02:24:45;;;;;;;11.40;6.03;;;;;;;18.31;87.28;100248.25;5007239;28;20030;-17
2023/06/04 02:27:12;;;;;;;9.63;6.35;;;;;;;18.22;87.06;100244.44;5005921;28;20614;-18
2023/06/04 02:29:41;;;;;;;9.75;6.50;;;;;;;18.39;86.08;100250.44;5006965;28;20629;-24
2023/06/04 02:32:07;;;;;;;13.02;6.75;;;;;;;18.55;86.08;100247.75;5007630;28;20511;-17
2023/06/04 02:34:36;;;;;;;10.48;6.65;;;;;;;18.57;85.29;100256.41;5007298;28;20049;-18
2023/06/04 02:37:02;;;;;;;8.68;6.32;;;;;;;18.59;85.18;100254.25;5006624;28;20493;-19
2023/06/04 02:39:27;;;;;;;9.30;6.47;;;;;;;18.39;86.29;100266.66;5007585;28;20058;-17
2023/06/04 02:41:53;;;;;;;9.27;6.72;;;;;;;18.48;85.63;100256.94;5007018;28;20135;-18
2023/06/04 02:44:18;;;;;;;10.70;6.43;;;;;;;18.50;85.03;100259.38;5007092;28;20037;-18
2023/06/04 02:46:44;;;;;;;9.77;6.82;;;;;;;18.41;85.85;100269.88;5006708;28;20034;-18
2023/06/04 02:49:13;;;;;;;10.82;6.85;;;;;;;18.54;85.11;100271.25;5006882;28;20034;-18
2023/06/04 02:51:43;;;;;;;11.20;6.72;;;;;;;18.20;nan;100263.59;5006492;28;20535;-20
2023/06/04 02:54:08;;;;;;;10.93;6.57;;;;;;;18.22;88.02;100266.03;5007371;28;20072;-24
2023/06/04 02:56:36;;;;;;;11.40;7.00;;;;;;;18.12;88.04;100271.41;5006771;28;20030;-18
2023/06/04 02:59:01;;;;;;;11.25;7.18;;;;;;;18.16;88.25;100276.00;5006615;28;20584;-17
2023/06/04 03:01:27;;;;;;;12.68;7.45;;;;;;;18.28;87.53;100273.06;5006764;28;20029;-19
2023/06/04 03:03:53;;;;;;;13.38;6.50;;;;;;;18.21;87.45;100277.94;5006804;28;20044;-18
2023/06/04 03:06:20;;;;;;;11.35;6.75;;;;;;;18.11;87.47;100264.38;5006322;28;20506;-18
2023/06/04 03:08:47;;;;;;;9.73;6.80;;;;;;;18.21;86.56;100270.63;5006779;28;20507;-17
2023/06/04 03:11:13;;;;;;;11.18;6.40;;;;;;;18.43;85.02;100283.94;5006194;28;20130;-18
2023/06/04 03:13:39;;;;;;;13.68;6.60;;;;;;;18.47;83.12;100279.63;5006586;28;20068;-21
2023/06/04 03:16:09;;;;;;;9.52;6.13;;;;;;;18.37;83.90;100279.59;5006663;28;20425;-18
2023/06/04 03:18:40;;;;;;;10.60;6.82;;;;;;;18.32;84.31;100276.88;5006218;28;20034;-17
2023/06/04 03:21:05;;;;;;;11.40;6.15;;;;;;;18.35;85.12;100287.16;5006556;28;20034;-17
2023/06/04 03:23:32;;;;;;;9.85;5.63;;;;;;;18.20;85.00;100282.50;5006239;28;20045;-18
2023/06/04 03:25:57;;;;;;;8.75;6.07;;;;;;;18.18;85.21;100286.53;5006255;28;20065;-18
2023/06/04 03:28:23;;;;;;;7.88;5.43;;;;;;;18.25;84.67;100277.13;5005951;28;20104;-18
2023/06/04 03:30:48;;;;;;;10.63;5.38;;;;;;;18.28;84.16;100286.56;5006077;28;20061;-18
2023/06/04 03:33:14;;;;;;;7.70;5.70;;;;;;;18.36;83.95;100288.75;5006189;28;20034;-20
2023/06/04 03:35:42;;;;;;;8.07;5.72;;;;;;;18.29;84.37;100290.91;5006125;28;20025;-18
2023/06/04 03:38:07;;;;;;;9.85;5.70;;;;;;;18.35;84.05;100287.16;5005902;28;20029;-22
2023/06/04 03:40:33;;;;;;;10.57;5.97;;;;;;;18.40;84.02;100295.25;5006030;28;20026;-18
2023/06/04 03:43:00;;;;;;;10.73;6.32;;;;;;;18.46;84.54;100301.50;5005985;28;20089;-18
2023/06/04 03:45:26;;;;;;;9.95;5.88;;;;;;;18.60;83.43;100299.91;5005670;28;20496;-17
2023/06/04 03:47:51;;;;;;;9.07;5.55;;;;;;;18.45;84.49;100297.97;5005031;28;20030;-17
2023/06/04 03:50:18;;;;;;;7.75;5.25;;;;;;;18.56;83.07;100300.72;5005320;28;20089;-18
2023/06/04 03:52:44;;;;;;;8.25;5.65;;;;;;;18.50;83.65;100291.78;5005612;28;20101;-21
2023/06/04 03:55:10;;;;;;;8.95;6.00;;;;;;;18.58;83.88;100301.25;5005752;28;20029;-18
2023/06/04 03:57:38;;;;;;;9.40;5.82;;;;;;;18.65;84.42;100301.81;5005691;28;20112;-19
2023/06/04 04:00:05;;;;;;;9.00;6.22;;;;;;;18.64;85.25;100305.59;5005528;28;20501;-18
2023/06/04 04:02:31;;;;;;;8.70;5.80;;;;;;;18.84;83.34;100305.66;5005708;28;20041;-17
2023/06/04 04:04:56;;;;;;;10.13;5.97;;;;;;;18.80;84.09;100315.38;5005531;28;20017;-18
2023/06/04 04:07:23;;;;;;;8.25;5.72;;;;;;;18.57;84.64;100310.44;5005708;28;20033;-18
2023/06/04 04:09:48;;;;;;;9.60;5.57;;;;;;;18.60;84.52;100309.91;5005616;28;20029;-19
2023/06/04 04:12:14;;;;;;;10.35;5.90;;;;;;;18.52;84.79;100313.13;5005317;28;20655;-18
2023/06/04 04:14:39;;;;;;;8.73;5.53;;;;;;;18.67;85.30;100321.25;5005461;28;20436;-18
2023/06/04 04:17:05;;;;;;;8.07;5.35;;;;;;;18.52;85.67;100313.13;5005376;28;20025;-18
2023/06/04 04:19:30;;;;;;;9.43;5.57;;;;;;;18.81;82.91;100325.09;5005469;28;20037;-18
2023/06/04 04:21:56;;;;;;;9.40;5.45;;;;;;;18.87;82.85;100326.72;5005314;28;20476;-17
2023/06/04 04:24:27;;;;;;;7.72;5.50;;;;;;;18.85;82.88;100326.19;5005018;28;20025;-20
2023/06/04 04:26:54;;;;;;;9.82;5.65;;;;;;;18.83;81.53;100319.44;5005259;28;20114;-18
2023/06/04 04:29:24;;;;;;;9.00;6.30;;;;;;;18.92;82.59;100319.72;5005276;28;20167;-18
2023/06/04 04:31:50;;;;;;;9.32;5.28;;;;;;;19.17;80.79;100335.97;5004507;28;20095;-19
2023/06/04 04:34:16;;;;;;;8.10;5.32;;;;;;;19.13;81.02;100328.69;5005055;28;20034;-18
2023/06/04 04:36:43;;;;;;;9.38;5.53;;;;;;;19.10;81.53;100329.19;5005160;28;20028;-18
2023/06/04 04:39:09;;;;;;;9.52;5.70;;;;;;;18.96;83.65;100335.16;5004978;28;20033;-18
2023/06/04 04:41:35;;;;;;;8.23;5.90;;;;;;;19.00;82.59;100340.81;5005121;28;20464;-18
2023/06/04 04:44:05;;;;;;;8.68;5.82;;;;;;;18.93;82.79;100351.06;5005347;28;20018;-17
2023/06/04 04:46:30;;;;;;;8.57;5.80;;;;;;;18.99;83.61;100352.72;5005205;28;20034;-18
2023/06/04 04:48:56;;;;;;;10.60;6.32;;;;;;;19.10;82.88;100356.22;5005065;28;20117;-19
2023/06/04 04:51:21;;;;;;;7.75;5.45;;;;;;;18.94;84.12;100358.09;5004721;28;20513;-18
2023/06/04 04:53:47;;;;;;;10.70;5.78;;;;;;;18.95;83.78;100355.13;5005234;28;20058;-17
2023/06/04 04:56:13;;;;;;;8.38;5.80;;;;;;;19.18;84.17;100369.22;5004761;28;20151;-17
2023/06/04 04:58:38;;;;;;;8.35;5.88;;;;;;;19.20;85.35;100370.56;5005492;28;20821;-18
2023/06/04 05:01:04;;;;;;;10.45;6.25;;;;;;;19.21;83.75;100377.59;5008472;28;20026;-18
2023/06/04 05:03:29;;;;;;;9.00;5.93;;;;;;;19.18;83.56;100375.44;5008489;28;20092;-17
2023/06/04 05:05:54;;;;;;;9.30;6.10;;;;;;;19.14;82.55;100373.53;5008757;28;20571;-19
2023/06/04 05:08:20;;;;;;;10.23;6.20;;;;;;;19.30;83.10;100387.91;5008498;28;20033;-17
2023/06/04 05:10:45;;;;;;;8.70;5.70;;;;;;;19.39;82.66;100380.84;5008230;28;20018;-18
2023/06/04 05:13:11;;;;;;;9.07;6.50;;;;;;;19.32;82.72;100391.13;5008338;28;20022;-19
2023/06/04 05:15:36;;;;;;;8.98;5.75;;;;;;;19.53;81.45;100390.06;5008080;28;20029;-20
2023/06/04 05:18:03;;;;;;;9.30;6.20;;;;;;;19.91;79.69;100397.94;5008260;28;20030;-20
2023/06/04 05:20:29;;;;;;;11.57;6.45;;;;;;;19.85;78.67;100395.22;5008156;28;20692;-18
2023/06/04 05:22:55;;;;;;;10.50;6.20;;;;;;;20.14;77.46;100396.53;5008303;28;20053;-17
2023/06/04 05:25:21;;;;;;;9.60;6.35;;;;;;;19.87;77.68;100398.47;5007931;28;20056;-18
2023/06/04 05:27:49;;;;;;;11.65;6.10;;;;;;;19.76;78.35;100401.47;5008328;28;20036;-17
2023/06/04 05:30:15;;;;;;;8.80;5.45;;;;;;;19.71;79.45;100404.16;5008177;28;20030;-18
2023/06/04 05:32:40;;;;;;;9.38;6.10;;;;;;;19.76;80.42;100406.88;5008150;28;20038;-18
2023/06/04 05:35:07;;;;;;;7.95;5.32;;;;;;;19.78;79.18;100410.13;5007950;28;20037;-18
2023/06/04 05:37:37;;;;;;;9.23;6.18;;;;;;;19.83;78.33;100410.09;5008109;28;20029;-18
2023/06/04 05:40:05;;;;;;;8.85;5.78;;;;;;;19.87;78.66;100413.88;5007528;28;20084;-18
2023/06/04 05:42:31;;;;;;;15.10;8.32;;;;;;;20.04;78.46;100411.72;5007737;28;20050;-18
2023/06/04 05:44:56;;;;;;;11.20;7.57;;;;;;;19.93;80.12;100422.81;5007765;28;20080;-18
2023/06/04 05:47:22;;;;;;;12.05;6.57;;;;;;;19.86;80.61;100423.09;5007616;28;20530;-18
2023/06/04 05:49:47;;;;;;;8.73;6.07;;;;;;;19.89;79.60;100417.13;5005210;28;20022;-19
2023/06/04 05:52:13;;;;;;;9.70;6.50;;;;;;;19.76;80.56;100406.88;5007287;28;20030;-18
2023/06/04 05:54:38;;;;;;;17.45;14.25;;;;;;;19.83;80.57;100429.06;5007675;28;20109;-18
2023/06/04 05:57:05;;;;;;;14.55;8.15;;;;;;;20.02;79.47;100427.44;5007145;28;20436;-18
2023/06/04 05:59:30;;;;;;;10.02;7.50;;;;;;;20.11;79.98;100440.41;5007538;28;20037;-18
2023/06/04 06:01:56;;;;;;;12.15;6.47;;;;;;;20.04;79.38;100436.09;5007275;28;20416;-19
2023/06/04 06:04:22;;;;;;;9.27;5.93;;;;;;;20.18;79.03;100441.72;5007569;28;20030;-19
2023/06/04 06:06:48;;;;;;;9.80;5.82;;;;;;;20.16;79.76;100443.91;5007742;28;20030;-17
2023/06/04 06:09:17;;;;;;;9.73;6.43;;;;;;;20.13;80.75;100446.34;5007615;28;20025;-18
2023/06/04 06:11:42;;;;;;;9.68;6.28;;;;;;;20.32;80.07;100444.69;5006272;28;20074;-18
2023/06/04 06:14:08;;;;;;;8.80;6.45;;;;;;;20.32;80.54;100441.97;5007295;28;20065;-25
2023/06/04 06:16:33;;;;;;;9.55;6.65;;;;;;;20.30;79.96;100441.44;5007083;28;20113;-18
2023/06/04 06:19:00;;;;;;;10.57;6.50;;;;;;;20.23;80.10;100441.72;5006962;28;20508;-23
2023/06/04 06:21:26;;;;;;;11.47;7.03;;;;;;;20.26;80.99;100454.72;5004727;28;20029;-18
2023/06/04 06:23:51;;;;;;;13.07;8.70;;;;;;;20.22;81.43;100453.63;5006846;28;20037;-18
2023/06/04 06:26:17;;;;;;;14.75;12.90;;;;;;;20.33;80.16;100457.16;5006923;28;20470;-18
2023/06/04 06:28:42;;;;;;;22.90;15.32;;;;;;;20.26;82.95;100459.31;5006605;28;20145;-17
2023/06/04 06:31:08;;;;;;;13.55;9.35;;;;;;;20.43;81.43;100459.00;5006794;28;20501;-22
2023/06/04 06:33:33;;;;;;;14.02;10.20;;;;;;;20.45;81.07;100463.09;5007258;28;20038;-18
2023/06/04 06:36:02;;;;;;;12.40;8.10;;;;;;;20.33;81.03;100465.28;5006927;28;20117;-18
2023/06/04 06:38:27;;;;;;;10.05;7.45;;;;;;;20.41;80.79;100464.72;5007044;28;20034;-19
2023/06/04 06:40:53;;;;;;;9.27;7.18;;;;;;;20.32;81.47;100468.25;5006769;28;20705;-22
2023/06/04 06:43:18;;;;;;;14.20;9.35;;;;;;;20.45;81.23;100462.25;5006943;28;20480;-18
2023/06/04 06:45:44;;;;;;;12.30;6.50;;;;;;;20.52;81.67;100467.41;5006835;28;20729;-18
2023/06/04 06:48:09;;;;;;;20.25;13.55;;;;;;;20.49;80.57;100468.75;5007077;28;20096;-20
2023/06/04 06:50:35;;;;;;;9.38;6.30;;;;;;;20.34;80.03;100466.88;5007020;28;20045;-20
2023/06/04 06:53:02;;;;;;;8.63;6.03;;;;;;;20.32;79.58;100469.06;5007004;28;20046;-18
2023/06/04 06:55:28;;;;;;;9.45;6.78;;;;;;;20.20;80.70;100465.81;5006883;28;20036;-19
2023/06/04 06:57:53;;;;;;;13.13;6.22;;;;;;;20.41;81.24;100469.31;5006755;28;20022;-18
2023/06/04 07:00:19;;;;;;;9.65;6.30;;;;;;;20.47;82.33;100485.28;5005469;28;20037;-19
2023/06/04 07:02:44;;;;;;;10.75;6.45;;;;;;;20.51;82.09;100484.72;5006877;28;20058;-18
2023/06/04 07:05:11;;;;;;;9.73;5.85;;;;;;;20.57;80.63;100480.91;5006545;28;20504;-19
2023/06/04 07:07:36;;;;;;;13.88;6.60;;;;;;;20.46;81.09;100488.25;5006350;28;20417;-18
2023/06/04 07:10:03;;;;;;;9.35;5.93;;;;;;;20.35;82.38;100484.78;5006364;28;20494;-20
2023/06/04 07:12:29;;;;;;;13.15;7.47;;;;;;;20.46;82.08;100499.91;5006505;28;20041;-20
2023/06/04 07:14:55;;;;;;;10.57;6.93;;;;;;;20.25;83.59;100490.22;5005961;28;20038;-18
2023/06/04 07:17:21;;;;;;;11.85;6.80;;;;;;;20.09;85.59;100491.31;5006367;28;20114;-18
2023/06/04 07:19:47;;;;;;;8.10;6.28;;;;;;;20.20;84.76;100495.63;5006413;28;20112;-17
2023/06/04 07:22:15;;;;;;;11.85;7.30;;;;;;;20.40;83.36;100495.59;5005096;28;20386;-19
2023/06/04 07:24:41;;;;;;;10.65;7.00;;;;;;;20.55;84.53;100502.06;5006397;28;20033;-19
2023/06/04 07:27:13;;;;;;;10.13;7.13;;;;;;;20.44;84.74;100495.84;5006428;28;20044;-18
2023/06/04 07:29:39;;;;;;;10.50;6.65;;;;;;;20.54;83.61;100492.31;5006171;28;20042;-19
2023/06/04 07:32:05;;;;;;;11.77;6.85;;;;;;;20.45;84.26;100501.00;5006344;28;20037;-18
2023/06/04 07:34:31;;;;;;;9.98;6.70;;;;;;;20.44;84.61;100499.38;5006125;28;20877;-20
2023/06/04 07:36:56;;;;;;;12.55;7.88;;;;;;;20.42;86.56;100504.25;5006252;28;20124;-18
2023/06/04 07:39:22;;;;;;;11.20;7.38;;;;;;;20.42;84.98;100501.53;5005525;28;20033;-19
2023/06/04 07:41:48;;;;;;;11.13;7.45;;;;;;;20.25;86.51;100503.75;5005904;28;20601;-18
2023/06/04 07:44:13;;;;;;;10.65;7.07;;;;;;;20.37;86.61;100506.97;5005749;28;20113;-19
2023/06/04 07:46:38;;;;;;;10.10;7.20;;;;;;;20.47;87.43;100503.41;5006149;28;20420;-19
2023/06/04 07:49:04;;;;;;;10.10;8.00;;;;;;;20.37;87.86;100508.84;5006034;28;20443;-18
2023/06/04 07:51:29;;;;;;;12.13;7.65;;;;;;;20.29;88.89;100502.13;5005670;28;20386;-19
2023/06/04 07:53:55;;;;;;;10.30;7.18;;;;;;;20.39;88.56;100515.66;5005821;28;20040;-18
2023/06/04 07:56:20;;;;;;;10.02;7.05;;;;;;;20.43;87.22;100513.19;5005766;28;20065;-18
2023/06/04 07:58:46;;;;;;;10.10;7.70;;;;;;;20.52;87.73;100505.31;5005621;28;20032;-19
2023/06/04 08:01:12;;;;;;;10.52;7.28;;;;;;;20.54;86.77;100517.50;5005523;28;20112;-19
2023/06/04 08:03:38;;;;;;;10.75;7.50;;;;;;;20.41;87.42;100515.34;5005876;28;20107;-18
2023/06/04 08:06:03;;;;;;;11.73;7.63;;;;;;;20.34;88.20;100521.06;5005637;28;20025;-18
2023/06/04 08:08:29;;;;;;;11.38;7.53;;;;;;;20.45;89.39;100517.25;5005661;28;20041;-18
2023/06/04 08:10:54;;;;;;;12.68;8.38;;;;;;;20.32;89.67;100527.84;5005279;28;20032;-18
2023/06/04 08:13:20;;;;;;;10.15;8.02;;;;;;;20.52;89.18;100524.28;5005445;28;20021;-18
2023/06/04 08:15:46;;;;;;;12.45;8.27;;;;;;;20.42;90.07;100522.41;5005534;28;20410;-19
2023/06/04 08:18:45;;;;;;;11.15;8.35;;;;;;;20.50;89.39;100521.03;5005665;28;20026;-20
2023/06/04 08:21:11;;;;;;;10.75;7.80;;;;;;;20.58;88.77;100523.19;5005100;28;20037;-20
2023/06/04 08:23:36;;;;;;;12.13;8.50;;;;;;;21.08;87.22;100524.13;5005243;28;20034;-18
2023/06/04 08:26:02;;;;;;;11.02;8.13;;;;;;;21.32;85.15;100537.06;5005029;28;20038;-22
2023/06/04 08:28:27;;;;;;;9.32;8.20;;;;;;;20.93;86.91;100535.06;5005102;28;20022;-19
2023/06/04 08:30:53;;;;;;;11.02;7.80;;;;;;;20.93;87.88;100533.16;5005085;28;20029;-20
2023/06/04 08:33:18;;;;;;;13.98;8.90;;;;;;;21.16;87.49;100537.13;5004802;28;20100;-19
2023/06/04 08:35:44;;;;;;;10.32;7.78;;;;;;;21.44;84.26;100527.50;5005248;28;20018;-18
2023/06/04 08:38:09;;;;;;;13.48;8.10;;;;;;;21.63;82.74;100527.66;5004778;28;20486;-18
2023/06/04 08:40:35;;;;;;;9.10;7.68;;;;;;;21.72;81.06;100532.50;5005215;28;20022;-18
2023/06/04 08:43:01;;;;;;;12.30;7.90;;;;;;;21.82;81.49;100533.25;5004996;28;20042;-19
2023/06/04 08:45:26;;;;;;;11.57;7.90;;;;;;;22.12;80.41;100530.56;5005076;28;20108;-20
2023/06/04 08:47:53;;;;;;;16.30;7.95;;;;;;;22.17;80.12;100528.63;5005315;28;20037;-18
2023/06/04 08:50:22;;;;;;;11.65;7.60;;;;;;;22.18;77.61;100524.00;5005036;28;20099;-18
2023/06/04 08:52:52;;;;;;;10.77;7.65;;;;;;;22.39;78.32;100539.06;5005007;28;20610;-18
2023/06/04 08:55:18;;;;;;;12.05;7.72;;;;;;;22.21;77.25;100537.00;5004768;28;20749;-18
2023/06/04 08:57:44;;;;;;;9.75;7.05;;;;;;;22.42;75.61;100535.75;5004759;28;20552;-19
2023/06/04 09:00:09;;;;;;;13.57;7.85;;;;;;;22.57;76.02;100548.38;5004948;28;20109;-19
2023/06/04 09:02:38;;;;;;;12.18;7.65;;;;;;;22.61;75.25;100540.47;5004965;28;20109;-21
2023/06/04 09:05:07;;;;;;;12.02;8.40;;;;;;;22.90;73.63;100545.03;5004691;28;20030;-18
2023/06/04 09:07:35;;;;;;;13.45;8.80;;;;;;;22.63;74.82;100535.56;5004668;28;20021;-25
2023/06/04 09:10:01;;;;;;;11.48;8.48;;;;;;;22.62;75.20;100533.94;5004934;28;20104;-18
2023/06/04 09:12:28;;;;;;;10.90;8.77;;;;;;;22.65;75.33;100536.06;5004951;28;20061;-18
2023/06/04 09:14:53;;;;;;;9.33;7.90;;;;;;;22.73;72.95;100540.88;5004606;28;20053;-18
2023/06/04 09:17:23;;;;;;;12.05;9.05;;;;;;;22.44;74.65;100544.44;5004411;28;20648;-19
2023/06/04 09:19:50;;;;;;;12.93;7.70;;;;;;;21.89;80.25;100543.78;5004818;28;20556;-18
2023/06/04 09:22:15;;;;;;;9.80;6.53;;;;;;;21.47;84.27;100547.84;5004716;28;20030;-18
2023/06/04 09:24:52;;;;;;;8.82;6.93;;;;;;;21.54;84.41;100537.50;5004579;28;20272;-18
2023/06/04 09:27:19;;;;;;;11.27;6.78;;;;;;;21.57;82.05;100544.28;5004687;28;20029;-18
2023/06/04 09:29:58;;;;;;;11.32;7.03;;;;;;;21.69;81.53;100554.78;5004854;28;20034;-20
2023/06/04 09:32:30;;;;;;;10.35;7.30;;;;;;;21.56;80.44;100550.81;5004582;28;20056;-18
2023/06/04 09:35:08;;;;;;;11.52;7.75;;;;;;;21.66;81.30;100546.13;5004742;28;20038;-20
2023/06/04 09:37:34;;;;;;;9.13;7.57;;;;;;;21.98;79.66;100542.06;5004986;28;20456;-19
2023/06/04 09:40:00;;;;;;;10.38;8.65;;;;;;;22.30;78.17;100551.63;5004920;28;20026;-19
2023/06/04 09:42:25;;;;;;;9.88;7.95;;;;;;;22.36;76.88;100549.69;5004432;28;20042;-19
2023/06/04 09:44:51;;;;;;;10.63;7.55;;;;;;;22.19;79.07;100547.34;5005198;28;20924;-19
2023/06/04 09:47:16;;;;;;;12.60;7.22;;;;;;;21.81;80.04;100542.47;5008248;28;20026;-19
2023/06/04 09:49:43;;;;;;;10.73;6.88;;;;;;;22.04;78.87;100554.53;5008332;28;20026;-20
2023/06/04 09:52:09;;;;;;;8.03;6.97;;;;;;;21.69;80.61;100549.34;5008283;28;20040;-19
2023/06/04 09:54:36;;;;;;;8.63;6.80;;;;;;;21.55;81.78;100560.81;5008661;28;20026;-18
2023/06/04 09:57:04;;;;;;;10.07;6.53;;;;;;;21.73;81.25;100545.00;5008676;28;20026;-22
2023/06/04 09:59:36;;;;;;;9.82;6.22;;;;;;;21.84;80.36;100551.97;5008505;28;20356;-18
2023/06/04 10:02:03;;;;;;;10.32;6.43;;;;;;;21.88;79.39;100536.72;5008489;28;20033;-22
2023/06/04 10:04:30;;;;;;;9.23;6.47;;;;;;;21.87;79.49;100540.53;5008353;28;20168;-19
2023/06/04 10:06:56;;;;;;;8.02;6.13;;;;;;;21.65;79.35;100549.91;5008500;28;20663;-20
2023/06/04 10:09:25;;;;;;;7.40;5.70;;;;;;;21.79;79.88;100543.88;5008491;28;20030;-18
2023/06/04 10:11:57;;;;;;;8.48;5.30;;;;;;;21.70;80.75;100553.69;5008316;28;20034;-18
2023/06/04 10:14:28;;;;;;;7.85;4.90;;;;;;;21.78;80.12;100553.09;5008077;28;20585;-19
2023/06/04 10:16:56;;;;;;;8.18;5.30;;;;;;;21.82;79.61;100548.72;5007708;28;20021;-18
2023/06/04 10:19:22;;;;;;;7.53;5.10;;;;;;;21.69;80.82;100543.94;5007458;28;20038;-18
2023/06/04 10:21:48;;;;;;;7.68;5.63;;;;;;;21.61;80.48;100548.03;5007396;28;20026;-20
2023/06/04 10:24:14;;;;;;;8.75;5.38;;;;;;;21.54;81.10;100561.13;5007400;28;20026;-19
2023/06/04 10:26:41;;;;;;;8.95;5.43;;;;;;;21.64;80.47;100559.16;5007189;28;20033;-18
2023/06/04 10:29:08;;;;;;;8.32;5.38;;;;;;;21.78;80.04;100555.81;5007214;28;20103;-19
2023/06/04 10:31:34;;;;;;;7.38;5.43;;;;;;;21.50;82.28;100557.34;5007070;28;20034;-19
2023/06/04 10:34:00;;;;;;;8.23;4.82;;;;;;;21.52;80.73;100564.13;5007303;28;20032;-19
2023/06/04 10:36:25;;;;;;;7.68;4.82;;;;;;;21.40;81.00;100563.59;5007064;28;20029;-18
2023/06/04 10:38:53;;;;;;;7.90;5.57;;;;;;;21.19;83.00;100549.34;5007001;28;20026;-19
2023/06/04 10:41:21;;;;;;;10.50;5.85;;;;;;;21.71;80.89;100555.31;5006726;28;20046;-19
2023/06/04 10:43:49;;;;;;;;;;;;;;;21.93;79.97;100550.28;5007234;28;20042;-18
2023/06/04 10:46:16;;;;;;;19.73;12.82;;;;;;;22.11;78.99;100540.63;5006949;28;19967;-18
2023/06/04 10:48:51;;;;;;;8.23;5.67;;;;;;;22.28;79.22;100551.13;5007009;28;20036;-18
2023/06/04 10:51:32;;;;;;;7.65;5.93;;;;;;;22.05;78.91;100529.00;5007025;28;20311;-19
2023/06/04 10:53:59;;;;;;;12.05;6.47;;;;;;;22.15;76.16;100540.84;5006998;28;20021;-18
2023/06/04 10:56:28;;;;;;;9.00;6.18;;;;;;;22.41;76.83;100538.75;5006445;28;20030;-18
2023/06/04 10:58:54;;;;;;;17.33;8.48;;;;;;;22.64;75.59;100535.28;5006768;28;20101;-18
2023/06/04 11:01:28;;;;;;;11.68;8.05;;;;;;;22.72;72.94;100528.41;5006849;28;20546;-19
2023/06/04 11:03:54;;;;;;;9.68;7.78;;;;;;;22.80;73.25;100529.66;5006680;28;20149;-18
2023/06/04 11:06:21;;;;;;;10.80;6.97;;;;;;;23.28;71.31;100526.94;5006210;28;20133;-19
2023/06/04 11:08:48;;;;;;;11.07;7.83;;;;;;;23.73;68.06;100529.28;5006776;28;20065;-17
2023/06/04 11:11:16;;;;;;;10.93;7.40;;;;;;;23.45;68.97;100523.69;5006418;28;20018;-18
2023/06/04 11:13:43;;;;;;;20.30;8.68;;;;;;;23.37;69.66;100517.00;5006677;28;20057;-20
2023/06/04 11:16:17;;;;;;;11.70;9.00;;;;;;;24.02;66.98;100526.41;5006697;28;20034;-28
2023/06/04 11:18:42;;;;;;;11.77;8.38;;;;;;;24.12;64.57;100517.25;5006006;28;20033;-18
2023/06/04 11:21:07;;;;;;;12.80;8.35;;;;;;;24.14;63.99;100528.66;5006417;28;20034;-20